createdAt,value
2018-04-29T00:00:19.183Z,3.37
2018-04-29T00:02:45.063Z,3.40
2018-04-29T00:05:10.906Z,3.40
2018-04-29T00:07:36.738Z,3.40
2018-04-29T00:10:02.665Z,3.60
2018-04-29T00:12:28.524Z,4.40
2018-04-29T00:14:54.383Z,4.00
2018-04-29T00:17:20.228Z,4.40
2018-04-29T00:19:46.096Z,3.50
2018-04-29T00:22:11.936Z,3.30
2018-04-29T00:24:37.803Z,3.27
2018-04-29T00:27:03.652Z,3.33
2018-04-29T00:29:29.484Z,3.53
2018-04-29T00:31:55.378Z,3.13
2018-04-29T00:34:21.221Z,3.20
2018-04-29T00:36:47.096Z,3.47
2018-04-29T00:39:12.953Z,4.60
2018-04-29T00:41:38.828Z,5.20
2018-04-29T00:44:04.696Z,5.60
2018-04-29T00:46:30.551Z,5.30
2018-04-29T00:48:56.372Z,5.33
2018-04-29T00:51:24.132Z,4.53
2018-04-29T00:53:49.983Z,4.07
2018-04-29T00:56:15.829Z,4.10
2018-04-29T00:58:41.676Z,3.90
2018-04-29T01:01:07.538Z,4.47
2018-04-29T01:03:33.381Z,4.80
2018-04-29T01:05:59.295Z,4.40
2018-04-29T01:08:25.136Z,4.70
2018-04-29T01:10:50.994Z,4.63
2018-04-29T01:13:16.863Z,4.13
2018-04-29T01:15:42.711Z,4.40
2018-04-29T01:18:08.560Z,4.83
2018-04-29T01:20:34.418Z,4.20
2018-04-29T01:23:00.278Z,3.80
2018-04-29T01:25:26.118Z,4.10
2018-04-29T01:27:51.967Z,4.67
2018-04-29T01:30:17.826Z,5.03
2018-04-29T01:32:43.679Z,5.07
2018-04-29T01:35:09.513Z,4.73
2018-04-29T01:37:35.397Z,5.50
2018-04-29T01:40:01.262Z,5.57
2018-04-29T01:42:27.077Z,4.77
2018-04-29T01:44:52.975Z,4.70
2018-04-29T01:47:18.827Z,4.80
2018-04-29T01:49:44.684Z,4.03
2018-04-29T01:52:10.519Z,4.83
2018-04-29T01:54:36.388Z,4.27
2018-04-29T01:57:02.240Z,3.60
2018-04-29T01:59:28.105Z,3.90
2018-04-29T02:01:53.936Z,4.10
2018-04-29T02:04:19.799Z,3.73
2018-04-29T02:06:45.655Z,4.00
2018-04-29T02:09:11.504Z,3.83
2018-04-29T02:11:37.356Z,3.70
2018-04-29T02:14:03.223Z,3.67
2018-04-29T02:16:29.065Z,3.70
2018-04-29T02:18:54.925Z,3.50
2018-04-29T02:21:20.779Z,3.83
2018-04-29T02:23:46.630Z,3.73
2018-04-29T02:26:12.445Z,3.40
2018-04-29T02:28:38.308Z,3.50
2018-04-29T02:31:04.167Z,3.73
2018-04-29T02:33:30.020Z,3.40
2018-04-29T02:35:55.856Z,3.90
2018-04-29T02:38:21.699Z,3.57
2018-04-29T02:40:47.650Z,3.33
2018-04-29T02:43:13.448Z,3.43
2018-04-29T02:45:39.326Z,3.53
2018-04-29T02:48:05.171Z,3.27
2018-04-29T02:50:31.040Z,3.50
2018-04-29T02:52:56.893Z,3.23
2018-04-29T02:55:22.757Z,3.37
2018-04-29T02:57:48.595Z,3.20
2018-04-29T03:00:14.463Z,3.10
2018-04-29T03:02:40.297Z,3.00
2018-04-29T03:05:06.180Z,3.43
2018-04-29T03:07:32.049Z,2.90
2018-04-29T03:09:57.942Z,3.53
2018-04-29T03:12:23.775Z,2.87
2018-04-29T03:14:49.638Z,3.00
2018-04-29T03:17:15.507Z,3.10
2018-04-29T03:19:42.121Z,2.73
2018-04-29T03:22:07.983Z,3.40
2018-04-29T03:24:33.855Z,3.07
2018-04-29T03:26:59.711Z,2.90
2018-04-29T03:29:25.547Z,3.47
2018-04-29T03:31:51.419Z,3.10
2018-04-29T03:34:17.250Z,3.03
2018-04-29T03:36:43.102Z,3.30
2018-04-29T03:39:08.938Z,3.70
2018-04-29T03:41:34.815Z,3.17
2018-04-29T03:44:00.667Z,3.20
2018-04-29T03:46:26.556Z,3.47
2018-04-29T03:48:52.397Z,3.57
2018-04-29T03:51:18.253Z,3.03
2018-04-29T03:53:44.137Z,3.10
2018-04-29T03:56:09.969Z,3.40
2018-04-29T03:58:48.346Z,3.43
2018-04-29T04:01:26.732Z,3.57
2018-04-29T04:03:57.623Z,3.20
2018-04-29T04:06:23.523Z,3.30
2018-04-29T04:08:49.349Z,3.03
2018-04-29T04:11:15.197Z,3.10
2018-04-29T04:13:41.062Z,3.60
2018-04-29T04:16:06.920Z,3.17
2018-04-29T04:18:32.784Z,3.50
2018-04-29T04:20:58.638Z,3.90
2018-04-29T04:23:24.473Z,2.90
2018-04-29T04:25:50.323Z,3.30
2018-04-29T04:28:16.180Z,3.80
2018-04-29T04:30:42.051Z,3.40
2018-04-29T04:33:07.910Z,3.87
2018-04-29T04:35:33.772Z,3.40
2018-04-29T04:37:59.635Z,3.70
2018-04-29T04:40:25.495Z,3.53
2018-04-29T04:42:51.359Z,3.50
2018-04-29T04:45:17.218Z,4.10
2018-04-29T04:47:43.095Z,4.07
2018-04-29T04:50:08.941Z,3.90
2018-04-29T04:52:34.795Z,3.90
2018-04-29T04:55:00.623Z,4.03
2018-04-29T04:57:26.469Z,3.87
2018-04-29T04:59:52.316Z,4.30
2018-04-29T05:02:18.206Z,4.30
2018-04-29T05:04:44.062Z,4.57
2018-04-29T05:07:09.919Z,3.77
2018-04-29T05:09:35.766Z,4.13
2018-04-29T05:12:01.602Z,4.10
2018-04-29T05:14:27.450Z,4.30
2018-04-29T05:16:53.297Z,4.33
2018-04-29T05:19:19.149Z,4.33
2018-04-29T05:21:45.011Z,4.60
2018-04-29T05:24:10.896Z,4.87
2018-04-29T05:26:36.744Z,4.70
2018-04-29T05:29:02.610Z,4.87
2018-04-29T05:31:28.474Z,4.43
2018-04-29T05:33:54.346Z,4.60
2018-04-29T05:36:20.196Z,4.43
2018-04-29T05:38:46.040Z,4.70
2018-04-29T05:41:11.903Z,4.97
2018-04-29T05:43:37.755Z,4.80
2018-04-29T05:46:03.586Z,5.40
2018-04-29T05:48:29.433Z,4.67
2018-04-29T05:53:48.495Z,5.07
2018-04-29T05:56:14.355Z,5.63
2018-04-29T05:58:40.201Z,5.07
2018-04-29T06:01:06.064Z,4.43
2018-04-29T06:03:31.940Z,4.93
2018-04-29T06:05:57.783Z,5.53
2018-04-29T06:08:23.626Z,5.00
2018-04-29T06:10:49.499Z,5.37
2018-04-29T06:13:15.349Z,4.80
2018-04-29T06:15:41.241Z,5.57
2018-04-29T06:18:07.688Z,5.43
2018-04-29T06:20:33.622Z,4.87
2018-04-29T06:22:59.473Z,5.13
2018-04-29T06:25:25.345Z,4.80
2018-04-29T06:27:51.212Z,4.97
2018-04-29T06:30:17.121Z,5.10
2018-04-29T06:32:42.980Z,5.13
2018-04-29T06:35:08.866Z,5.40
2018-04-29T06:37:34.733Z,5.33
2018-04-29T06:40:00.607Z,4.80
2018-04-29T06:42:26.510Z,4.87
2018-04-29T06:44:52.917Z,5.13
2018-04-29T06:47:18.795Z,4.70
2018-04-29T06:49:44.667Z,4.80
2018-04-29T06:52:10.548Z,5.30
2018-04-29T06:54:36.451Z,4.57
2018-04-29T06:57:02.335Z,4.63
2018-04-29T06:59:28.207Z,4.63
2018-04-29T07:01:54.167Z,5.07
2018-04-29T07:04:20.111Z,4.47
2018-04-29T07:06:45.990Z,5.07
2018-04-29T07:09:11.870Z,5.00
2018-04-29T07:11:37.720Z,4.70
2018-04-29T07:14:19.518Z,4.50
2018-04-29T07:16:45.389Z,3.93
2018-04-29T07:19:11.280Z,4.10
2018-04-29T07:21:37.131Z,4.67
2018-04-29T07:24:02.990Z,4.30
2018-04-29T07:26:28.853Z,4.10
2018-04-29T07:28:54.707Z,4.07
2018-04-29T07:31:20.557Z,4.03
2018-04-29T07:33:46.394Z,4.50
2018-04-29T07:36:12.273Z,3.60
2018-04-29T07:38:38.194Z,4.00
2018-04-29T07:41:04.040Z,3.50
2018-04-29T07:43:29.898Z,4.10
2018-04-29T07:45:55.750Z,3.83
2018-04-29T07:48:21.765Z,4.20
2018-04-29T07:50:47.643Z,3.77
2018-04-29T07:53:13.528Z,3.70
2018-04-29T07:55:39.433Z,3.90
2018-04-29T07:58:05.290Z,4.00
2018-04-29T08:00:31.157Z,3.30
2018-04-29T08:02:57.021Z,3.53
2018-04-29T08:05:22.887Z,3.50
2018-04-29T08:07:48.748Z,3.10
2018-04-29T08:10:14.601Z,3.60
2018-04-29T08:12:40.490Z,3.07
2018-04-29T08:15:06.332Z,3.40
2018-04-29T08:17:32.200Z,3.47
2018-04-29T08:19:58.058Z,3.60
2018-04-29T08:22:23.915Z,3.20
2018-04-29T08:24:49.777Z,2.80
2018-04-29T08:27:15.810Z,3.03
2018-04-29T08:29:41.673Z,2.90
2018-04-29T08:32:07.538Z,2.97
2018-04-29T08:34:33.459Z,3.50
2018-04-29T08:36:59.347Z,3.43
2018-04-29T08:39:25.196Z,3.50
2018-04-29T08:41:51.141Z,3.20
2018-04-29T08:44:16.984Z,3.23
2018-04-29T08:46:42.855Z,3.53
2018-04-29T08:49:08.738Z,3.50
2018-04-29T08:51:34.613Z,3.43
2018-04-29T08:54:00.465Z,3.30
2018-04-29T08:56:26.355Z,3.40
2018-04-29T08:58:52.239Z,3.00
2018-04-29T09:01:18.097Z,3.67
2018-04-29T09:03:43.994Z,3.30
2018-04-29T09:06:09.879Z,3.57
2018-04-29T09:08:35.762Z,3.10
2018-04-29T09:11:01.624Z,2.90
2018-04-29T09:13:27.482Z,3.90
2018-04-29T09:15:53.372Z,2.77
2018-04-29T09:18:19.219Z,3.90
2018-04-29T09:20:45.071Z,3.87
2018-04-29T09:23:10.953Z,3.30
2018-04-29T09:25:36.820Z,3.30
2018-04-29T09:28:02.701Z,3.00
2018-04-29T09:30:28.576Z,3.43
2018-04-29T09:32:54.462Z,3.00
2018-04-29T09:35:20.379Z,3.77
2018-04-29T09:37:46.245Z,3.30
2018-04-29T09:40:12.117Z,3.50
2018-04-29T09:42:37.994Z,3.50
2018-04-29T09:45:03.874Z,3.23
2018-04-29T09:47:29.756Z,2.90
2018-04-29T09:49:55.667Z,2.97
2018-04-29T09:52:21.522Z,3.20
2018-04-29T09:54:47.383Z,3.63
2018-04-29T09:57:13.306Z,3.40
2018-04-29T09:59:39.164Z,3.83
2018-04-29T10:02:10.157Z,3.50
2018-04-29T10:04:36.027Z,3.30
2018-04-29T10:07:01.849Z,3.43
2018-04-29T10:09:27.780Z,3.90
2018-04-29T10:11:54.552Z,4.40
2018-04-29T10:14:20.453Z,3.70
2018-04-29T10:16:46.340Z,3.73
2018-04-29T10:19:12.205Z,3.50
2018-04-29T10:21:38.106Z,3.00
2018-04-29T10:24:03.972Z,3.87
2018-04-29T10:26:29.842Z,3.30
2018-04-29T10:28:55.711Z,4.47
2018-04-29T10:31:21.573Z,3.73
2018-04-29T10:33:47.452Z,3.23
2018-04-29T10:36:13.319Z,3.20
2018-04-29T10:38:39.180Z,3.60
2018-04-29T10:41:05.159Z,3.20
2018-04-29T10:43:31.052Z,3.27
2018-04-29T10:45:57.010Z,3.00
2018-04-29T10:48:22.969Z,3.43
2018-04-29T10:50:48.957Z,3.13
2018-04-29T10:53:14.841Z,3.50
2018-04-29T10:55:40.731Z,3.10
2018-04-29T10:58:06.656Z,3.27
2018-04-29T11:00:32.539Z,3.10
2018-04-29T11:02:58.436Z,3.90
2018-04-29T11:05:24.325Z,3.37
2018-04-29T11:07:50.185Z,3.03
2018-04-29T11:10:21.448Z,2.97
2018-04-29T11:12:47.471Z,3.53
2018-04-29T11:15:13.359Z,3.20
2018-04-29T11:17:39.215Z,4.00
2018-04-29T11:20:05.058Z,3.10
2018-04-29T11:22:30.950Z,3.77
2018-04-29T11:24:56.843Z,3.40
2018-04-29T11:27:22.754Z,3.83
2018-04-29T11:29:48.605Z,3.23
2018-04-29T11:32:14.481Z,3.80
2018-04-29T11:34:40.417Z,2.93
2018-04-29T11:37:06.228Z,2.67
2018-04-29T11:39:32.200Z,2.90
2018-04-29T11:41:58.074Z,2.93
2018-04-29T11:44:23.930Z,3.23
2018-04-29T11:46:49.779Z,2.80
2018-04-29T11:49:15.648Z,3.03
2018-04-29T11:51:41.511Z,2.93
2018-04-29T11:54:07.380Z,2.90
2018-04-29T11:56:33.252Z,2.80
2018-04-29T11:58:59.122Z,2.70
2018-04-29T12:01:24.993Z,2.97
2018-04-29T12:03:50.896Z,3.17
2018-04-29T12:06:16.753Z,3.03
2018-04-29T12:08:42.604Z,2.70
2018-04-29T12:11:08.478Z,2.97
2018-04-29T12:13:34.381Z,2.70
2018-04-29T12:16:00.296Z,2.90
2018-04-29T12:18:26.146Z,2.90
2018-04-29T12:20:51.990Z,3.00
2018-04-29T12:23:17.889Z,3.50
2018-04-29T12:25:43.774Z,3.07
2018-04-29T12:28:09.644Z,2.87
2018-04-29T12:30:35.490Z,2.40
2018-04-29T12:33:01.360Z,3.20
2018-04-29T12:35:27.215Z,3.37
2018-04-29T12:37:53.097Z,2.97
2018-04-29T12:40:18.989Z,3.10
2018-04-29T12:42:44.832Z,2.80
2018-04-29T12:45:10.698Z,3.10
2018-04-29T12:47:36.555Z,2.57
2018-04-29T12:50:02.479Z,3.10
2018-04-29T12:52:28.353Z,2.73
2018-04-29T12:54:54.283Z,2.83
2018-04-29T12:57:20.135Z,2.50
2018-04-29T12:59:46.011Z,2.60
2018-04-29T13:02:11.907Z,2.33
2018-04-29T13:04:37.800Z,2.50
2018-04-29T13:07:03.661Z,2.90
2018-04-29T13:09:29.507Z,2.70
2018-04-29T13:11:55.393Z,2.83
2018-04-29T13:14:21.286Z,2.87
2018-04-29T13:16:47.157Z,3.17
2018-04-29T13:19:13.022Z,2.37
2018-04-29T13:21:39.502Z,3.00
2018-04-29T13:24:05.353Z,3.47
2018-04-29T13:26:31.215Z,2.80
2018-04-29T13:28:57.117Z,2.80
2018-04-29T13:31:23.029Z,2.70
2018-04-29T13:33:48.904Z,2.62
2018-04-29T13:36:14.746Z,3.00
2018-04-29T13:38:40.637Z,2.80
2018-04-29T13:41:06.506Z,2.80
2018-04-29T13:43:32.354Z,3.28
2018-04-29T13:45:58.294Z,3.00
2018-04-29T13:48:24.154Z,3.30
2018-04-29T13:50:50.016Z,3.08
2018-04-29T13:53:15.943Z,2.70
2018-04-29T13:55:41.786Z,2.90
2018-04-29T13:58:07.621Z,2.90
2018-04-29T14:00:34.935Z,3.25
2018-04-29T14:03:00.818Z,2.78
2018-04-29T14:05:26.731Z,2.85
2018-04-29T14:07:52.561Z,2.50
2018-04-29T14:10:18.508Z,2.87
2018-04-29T14:12:44.332Z,2.90
2018-04-29T14:15:10.214Z,3.17
2018-04-29T14:17:36.091Z,2.50
2018-04-29T14:20:01.929Z,2.37
2018-04-29T14:22:27.843Z,3.05
2018-04-29T14:24:53.699Z,2.55
2018-04-29T14:27:19.567Z,2.80
2018-04-29T14:29:45.493Z,2.90
2018-04-29T14:32:12.097Z,2.95
2018-04-29T14:34:37.996Z,3.30
2018-04-29T14:37:03.911Z,3.05
2018-04-29T14:39:29.808Z,3.17
2018-04-29T14:41:55.692Z,2.80
2018-04-29T14:44:21.595Z,2.75
2018-04-29T14:46:47.445Z,2.42
2018-04-29T14:49:13.327Z,2.80
2018-04-29T14:51:39.292Z,2.37
2018-04-29T14:54:05.141Z,2.65
2018-04-29T14:56:30.997Z,2.50
2018-04-29T14:58:56.910Z,3.08
2018-04-29T15:01:22.843Z,2.70
2018-04-29T15:03:48.645Z,2.70
2018-04-29T15:06:14.569Z,2.80
2018-04-29T15:08:40.507Z,2.80
2018-04-29T15:11:06.380Z,2.45
2018-04-29T15:13:32.219Z,2.58
2018-04-29T15:15:58.087Z,3.35
2018-04-29T15:21:23.174Z,2.40
2018-04-29T15:23:49.039Z,2.50
2018-04-29T15:26:14.895Z,2.50
2018-04-29T15:28:41.110Z,2.50
2018-04-29T15:31:07.018Z,2.28
2018-04-29T15:33:32.873Z,2.78
2018-04-29T15:35:58.735Z,2.70
2018-04-29T15:38:24.590Z,2.72
2018-04-29T15:40:50.488Z,2.60
2018-04-29T15:43:16.410Z,2.62
2018-04-29T15:45:42.266Z,2.80
2018-04-29T15:48:08.173Z,2.90
2018-04-29T15:50:34.053Z,2.65
2018-04-29T15:52:59.912Z,2.55
2018-04-29T15:55:25.822Z,2.58
2018-04-29T15:57:51.724Z,2.60
2018-04-29T16:00:17.591Z,2.92
2018-04-29T16:02:43.482Z,2.40
2018-04-29T16:05:09.340Z,2.97
2018-04-29T16:07:35.241Z,2.67
2018-04-29T16:10:01.144Z,2.60
2018-04-29T16:12:27.026Z,2.67
2018-04-29T16:14:52.897Z,2.60
2018-04-29T16:17:18.760Z,2.70
2018-04-29T16:19:44.656Z,2.20
2018-04-29T16:22:10.500Z,2.57
2018-04-29T16:24:36.418Z,2.70
2018-04-29T16:27:02.307Z,2.20
2018-04-29T16:29:28.219Z,2.87
2018-04-29T16:31:54.114Z,2.43
2018-04-29T16:34:19.976Z,2.80
2018-04-29T16:36:46.548Z,2.50
2018-04-29T16:39:12.412Z,2.97
2018-04-29T16:41:38.360Z,2.77
2018-04-29T16:44:04.209Z,3.00
2018-04-29T16:46:30.131Z,2.67
2018-04-29T16:48:56.008Z,3.00
2018-04-29T16:51:21.857Z,2.80
2018-04-29T16:53:47.738Z,2.67
2018-04-29T16:56:13.591Z,2.80
2018-04-29T16:58:39.454Z,3.00
2018-04-29T17:01:05.321Z,3.00
2018-04-29T17:03:31.207Z,2.80
2018-04-29T17:05:57.104Z,2.93
2018-04-29T17:08:22.975Z,2.60
2018-04-29T17:10:48.882Z,2.97
2018-04-29T17:13:14.761Z,2.70
2018-04-29T17:15:40.619Z,2.70
2018-04-29T17:18:06.637Z,2.67
2018-04-29T17:20:32.600Z,2.70
2018-04-29T17:22:58.507Z,3.50
2018-04-29T17:25:24.395Z,2.83
2018-04-29T17:27:50.236Z,3.27
2018-04-29T17:30:16.101Z,2.60
2018-04-29T17:32:41.969Z,2.90
2018-04-29T17:35:07.878Z,2.53
2018-04-29T17:37:33.847Z,2.77
2018-04-29T17:39:59.694Z,2.60
2018-04-29T17:42:25.568Z,2.67
2018-04-29T17:44:51.487Z,2.60
2018-04-29T17:47:17.412Z,3.10
2018-04-29T17:49:43.373Z,2.70
2018-04-29T17:52:09.314Z,2.67
2018-04-29T17:54:35.174Z,2.57
2018-04-29T17:57:01.033Z,2.43
2018-04-29T17:59:26.992Z,2.80
2018-04-29T18:01:52.884Z,3.30
2018-04-29T18:04:18.803Z,2.80
2018-04-29T18:06:44.679Z,2.80
2018-04-29T18:09:10.575Z,3.10
2018-04-29T18:11:36.624Z,2.63
2018-04-29T18:14:02.554Z,2.73
2018-04-29T18:16:28.499Z,2.60
2018-04-29T18:18:54.401Z,2.90
2018-04-29T18:21:20.285Z,2.90
2018-04-29T18:23:46.198Z,2.80
2018-04-29T18:26:12.135Z,2.70
2018-04-29T18:28:38.019Z,2.90
2018-04-29T18:31:03.925Z,3.07
2018-04-29T18:33:29.829Z,2.80
2018-04-29T18:35:55.810Z,2.80
2018-04-29T18:38:21.731Z,2.70
2018-04-29T18:40:48.627Z,2.60
2018-04-29T18:43:14.526Z,2.90
2018-04-29T18:45:40.478Z,3.10
2018-04-29T18:48:06.545Z,2.53
2018-04-29T18:50:32.580Z,2.90
2018-04-29T18:52:58.392Z,2.50
2018-04-29T18:55:25.187Z,2.70
2018-04-29T18:57:51.093Z,2.93
2018-04-29T19:00:17.079Z,3.07
2018-04-29T19:02:42.961Z,2.90
2018-04-29T19:05:08.841Z,3.13
2018-04-29T19:07:49.703Z,3.07
2018-04-29T19:10:15.641Z,3.33
2018-04-29T19:12:41.565Z,58.37
2018-04-29T19:15:07.497Z,49.03
2018-04-29T19:17:33.402Z,44.50
2018-04-29T19:19:59.315Z,30.80
2018-04-29T19:22:25.179Z,11.73
2018-04-29T19:24:51.082Z,36.07
2018-04-29T19:27:17.983Z,11.40
2018-04-29T19:29:43.912Z,12.97
2018-04-29T19:32:09.794Z,10.13
2018-04-29T19:34:35.843Z,35.70
2018-04-29T19:37:01.782Z,99.53
2018-04-29T19:39:27.677Z,25.67
2018-04-29T19:41:53.601Z,11.30
2018-04-29T19:44:19.818Z,6.90
2018-04-29T19:46:45.706Z,5.13
2018-04-29T19:49:11.625Z,3.83
2018-04-29T19:51:37.485Z,4.50
2018-04-29T19:54:03.450Z,3.57
2018-04-29T19:56:29.934Z,5.20
2018-04-29T19:58:55.922Z,7.50
2018-04-29T20:01:21.816Z,7.17
2018-04-29T20:03:47.816Z,21.60
2018-04-29T20:06:13.693Z,6.90
2018-04-29T20:08:39.532Z,3.10
2018-04-29T20:11:05.488Z,3.43
2018-04-29T20:13:31.429Z,3.13
2018-04-29T20:15:57.351Z,3.40
2018-04-29T20:18:23.325Z,3.00
2018-04-29T20:20:49.134Z,3.20
2018-04-29T20:23:15.358Z,3.67
2018-04-29T20:25:42.443Z,3.60
2018-04-29T20:28:08.380Z,3.23
2018-04-29T20:30:34.301Z,3.60
2018-04-29T20:33:00.172Z,3.63
2018-04-29T20:35:26.089Z,3.73
2018-04-29T20:37:52.000Z,4.30
2018-04-29T20:40:17.893Z,3.43
2018-04-29T20:42:43.809Z,3.67
2018-04-29T20:45:09.666Z,3.63
2018-04-29T20:47:35.577Z,4.10
2018-04-29T20:50:01.491Z,3.97
2018-04-29T20:52:27.327Z,3.87
2018-04-29T20:54:53.267Z,4.00
2018-04-29T20:57:19.161Z,3.70
2018-04-29T20:59:45.070Z,3.90
2018-04-29T21:02:10.937Z,3.70
2018-04-29T21:04:36.843Z,4.37
2018-04-29T21:07:02.726Z,4.10
2018-04-29T21:09:28.611Z,3.77
2018-04-29T21:11:54.563Z,4.30
2018-04-29T21:14:20.426Z,4.33
2018-04-29T21:16:46.319Z,3.67
2018-04-29T21:19:12.188Z,4.20
2018-04-29T21:21:38.061Z,3.60
2018-04-29T21:24:03.951Z,4.20
2018-04-29T21:26:29.866Z,3.87
2018-04-29T21:28:55.760Z,4.13
2018-04-29T21:31:21.681Z,3.63
2018-04-29T21:33:47.530Z,4.20
2018-04-29T21:36:13.469Z,4.40
2018-04-29T21:38:39.352Z,4.00
2018-04-29T21:41:05.193Z,3.77
2018-04-29T21:43:31.073Z,4.00
2018-04-29T21:45:57.031Z,4.20
2018-04-29T21:48:22.940Z,4.07
2018-04-29T21:50:48.779Z,4.07
2018-04-29T21:53:14.688Z,4.00
2018-04-29T21:55:40.542Z,4.33
2018-04-29T21:58:06.434Z,3.90
2018-04-29T22:00:32.289Z,4.47
2018-04-29T22:02:58.130Z,4.10
2018-04-29T22:05:23.996Z,4.00
2018-04-29T22:07:49.842Z,3.87
2018-04-29T22:10:15.697Z,4.47
2018-04-29T22:12:41.534Z,4.30
2018-04-29T22:15:07.395Z,3.90
2018-04-29T22:17:33.244Z,3.80
2018-04-29T22:19:59.160Z,4.07
2018-04-29T22:22:24.999Z,3.73
2018-04-29T22:24:50.862Z,4.40
2018-04-29T22:27:16.727Z,3.77
2018-04-29T22:29:42.634Z,4.73
2018-04-29T22:32:08.481Z,4.57
2018-04-29T22:34:34.305Z,4.03
2018-04-29T22:37:00.219Z,4.13
2018-04-29T22:39:26.048Z,4.40
2018-04-29T22:41:51.907Z,4.07
2018-04-29T22:44:17.746Z,4.20
2018-04-29T22:46:43.608Z,4.47
2018-04-29T22:49:09.446Z,4.23
2018-04-29T22:51:35.285Z,4.30
2018-04-29T22:54:01.117Z,3.93
2018-04-29T22:56:26.983Z,4.17
2018-04-29T22:58:52.872Z,3.87
2018-04-29T23:01:18.740Z,4.70
2018-04-29T23:03:44.590Z,4.10
2018-04-29T23:06:10.448Z,4.37
2018-04-29T23:08:36.282Z,4.63
2018-04-29T23:11:02.154Z,4.10
2018-04-29T23:13:28.002Z,4.10
2018-04-29T23:15:53.855Z,4.30
2018-04-29T23:18:19.690Z,3.90
2018-04-29T23:20:45.549Z,3.90
2018-04-29T23:23:11.392Z,4.43
2018-04-29T23:25:37.264Z,3.57
2018-04-29T23:28:03.175Z,4.27
2018-04-29T23:30:29.201Z,4.10
2018-04-29T23:32:55.077Z,3.90
2018-04-29T23:35:20.979Z,4.20
2018-04-29T23:37:46.823Z,3.90
2018-04-29T23:40:12.680Z,3.70
2018-04-29T23:42:38.556Z,3.90
2018-04-29T23:45:04.408Z,4.40
2018-04-29T23:47:30.280Z,4.40
2018-04-29T23:49:56.121Z,3.80
2018-04-29T23:52:21.980Z,4.37
2018-04-29T23:54:47.841Z,4.20
2018-04-29T23:57:13.686Z,3.83
2018-04-29T23:59:39.575Z,4.00
